createdAt,value
2018-07-20T00:00:07.815Z,0.00
2018-07-20T00:01:07.718Z,0.00
2018-07-20T00:02:07.825Z,0.00
2018-07-20T00:03:07.763Z,0.00
2018-07-20T00:04:07.935Z,0.00
2018-07-20T00:05:07.840Z,0.00
2018-07-20T00:06:07.917Z,0.00
2018-07-20T00:07:07.914Z,0.00
2018-07-20T00:08:07.880Z,0.00
2018-07-20T00:09:07.866Z,0.00
2018-07-20T00:10:07.862Z,0.00
2018-07-20T00:11:07.826Z,0.00
2018-07-20T00:12:07.880Z,0.00
2018-07-20T00:13:07.921Z,0.00
2018-07-20T00:14:07.777Z,0.00
2018-07-20T00:15:07.915Z,0.00
2018-07-20T00:16:07.903Z,0.00
2018-07-20T00:17:07.849Z,0.00
2018-07-20T00:18:07.901Z,0.00
2018-07-20T00:19:07.785Z,0.00
2018-07-20T00:20:07.830Z,0.00
2018-07-20T00:21:07.848Z,0.00
2018-07-20T00:22:07.796Z,0.00
2018-07-20T00:23:07.904Z,0.00
2018-07-20T00:24:07.852Z,0.00
2018-07-20T00:25:07.935Z,0.00
2018-07-20T00:26:07.874Z,0.00
2018-07-20T00:27:07.909Z,0.00
2018-07-20T00:28:07.879Z,0.00
2018-07-20T00:29:07.913Z,0.00
2018-07-20T00:30:07.950Z,0.00
2018-07-20T00:31:07.947Z,0.00
2018-07-20T00:32:07.986Z,0.00
2018-07-20T00:33:07.818Z,0.00
2018-07-20T00:34:07.916Z,0.00
2018-07-20T00:35:07.927Z,0.00
2018-07-20T00:36:07.920Z,0.00
2018-07-20T00:37:07.854Z,0.00
2018-07-20T00:38:07.854Z,0.00
2018-07-20T00:39:07.932Z,0.00
2018-07-20T00:40:07.860Z,0.00
2018-07-20T00:41:07.855Z,0.00
2018-07-20T00:42:07.923Z,0.00
2018-07-20T00:43:07.861Z,0.00
2018-07-20T00:44:07.828Z,0.00
2018-07-20T00:45:07.947Z,0.00
2018-07-20T00:46:07.851Z,0.00
2018-07-20T00:47:07.948Z,0.00
2018-07-20T00:48:07.879Z,0.00
2018-07-20T00:49:07.957Z,0.00
2018-07-20T00:50:07.893Z,0.00
2018-07-20T00:51:07.906Z,0.00
2018-07-20T00:52:07.951Z,0.00
2018-07-20T00:53:07.852Z,0.00
2018-07-20T00:54:07.864Z,0.00
2018-07-20T00:55:07.865Z,0.00
2018-07-20T00:56:07.868Z,0.00
2018-07-20T00:57:07.863Z,0.00
2018-07-20T00:58:07.934Z,0.00
2018-07-20T00:59:07.932Z,0.00
2018-07-20T01:00:07.866Z,0.00
2018-07-20T01:01:07.875Z,0.00
2018-07-20T01:02:07.873Z,0.00
2018-07-20T01:03:07.935Z,0.00
2018-07-20T01:04:07.977Z,0.00
2018-07-20T01:05:07.945Z,0.00
2018-07-20T01:06:07.882Z,0.00
2018-07-20T01:07:07.938Z,0.00
2018-07-20T01:08:07.983Z,0.00
2018-07-20T01:09:07.941Z,0.00
2018-07-20T01:10:07.865Z,0.00
2018-07-20T01:11:07.871Z,0.00
2018-07-20T01:12:07.921Z,0.00
2018-07-20T01:13:07.884Z,0.00
2018-07-20T01:14:07.976Z,0.00
2018-07-20T01:15:07.978Z,0.00
2018-07-20T01:16:07.985Z,0.00
2018-07-20T01:17:07.925Z,0.00
2018-07-20T01:18:07.871Z,0.00
2018-07-20T01:19:07.989Z,0.00
2018-07-20T01:20:07.926Z,0.00
2018-07-20T01:21:07.876Z,0.00
2018-07-20T01:22:07.871Z,0.00
2018-07-20T01:23:07.911Z,0.00
2018-07-20T01:24:07.948Z,0.00
2018-07-20T01:25:07.994Z,0.00
2018-07-20T01:26:07.915Z,0.00
2018-07-20T01:27:07.923Z,0.00
2018-07-20T01:28:07.860Z,0.00
2018-07-20T01:29:07.922Z,0.00
2018-07-20T01:30:07.920Z,0.00
2018-07-20T01:31:07.928Z,0.00
2018-07-20T01:32:07.864Z,0.00
2018-07-20T01:33:07.978Z,0.00
2018-07-20T01:34:07.994Z,0.00
2018-07-20T01:35:07.964Z,0.00
2018-07-20T01:36:07.981Z,0.00
2018-07-20T01:37:07.902Z,0.00
2018-07-20T01:38:07.879Z,0.00
2018-07-20T01:39:07.941Z,0.00
2018-07-20T01:40:07.934Z,0.00
2018-07-20T01:41:07.979Z,0.00
2018-07-20T01:42:08.021Z,0.00
2018-07-20T01:43:07.984Z,0.00
2018-07-20T01:44:08.004Z,0.00
2018-07-20T01:45:07.921Z,0.00
2018-07-20T01:46:07.871Z,0.00
2018-07-20T01:47:07.927Z,0.00
2018-07-20T01:48:08.009Z,0.00
2018-07-20T01:49:07.895Z,0.00
2018-07-20T01:50:07.969Z,0.00
2018-07-20T01:51:07.935Z,0.00
2018-07-20T01:52:07.969Z,0.00
2018-07-20T01:53:07.991Z,0.00
2018-07-20T01:54:07.900Z,0.00
2018-07-20T01:55:07.970Z,0.00
2018-07-20T01:56:07.906Z,0.00
2018-07-20T01:57:07.908Z,0.00
2018-07-20T01:58:08.033Z,0.00
2018-07-20T01:59:07.924Z,0.00
2018-07-20T02:00:08.015Z,0.00
2018-07-20T02:01:07.978Z,0.00
2018-07-20T02:02:07.978Z,0.00
2018-07-20T02:03:07.918Z,0.00
2018-07-20T02:04:07.918Z,0.00
2018-07-20T02:05:07.979Z,0.00
2018-07-20T02:06:07.916Z,0.00
2018-07-20T02:07:07.980Z,0.00
2018-07-20T02:08:07.983Z,0.00
2018-07-20T02:09:07.914Z,0.00
2018-07-20T02:10:07.980Z,0.00
2018-07-20T02:11:07.982Z,0.00
2018-07-20T02:12:07.918Z,0.00
2018-07-20T02:13:07.936Z,0.00
2018-07-20T02:14:08.018Z,0.00
2018-07-20T02:15:07.937Z,0.00
2018-07-20T02:16:07.978Z,0.00
2018-07-20T02:17:08.015Z,0.00
2018-07-20T02:18:08.029Z,0.00
2018-07-20T02:19:07.928Z,0.00
2018-07-20T02:20:07.955Z,0.00
2018-07-20T02:21:07.893Z,0.00
2018-07-20T02:22:07.963Z,0.00
2018-07-20T02:23:07.955Z,0.00
2018-07-20T02:24:08.017Z,0.00
2018-07-20T02:25:07.909Z,0.00
2018-07-20T02:26:07.917Z,0.00
2018-07-20T02:27:07.894Z,0.00
2018-07-20T02:28:07.970Z,0.00
2018-07-20T02:29:07.900Z,0.00
2018-07-20T02:30:08.046Z,0.00
2018-07-20T02:31:08.025Z,0.00
2018-07-20T02:32:07.956Z,0.00
2018-07-20T02:33:08.000Z,0.00
2018-07-20T02:34:07.974Z,0.00
2018-07-20T02:35:07.956Z,0.00
2018-07-20T02:36:08.001Z,0.00
2018-07-20T02:37:07.944Z,0.00
2018-07-20T02:38:07.995Z,0.00
2018-07-20T02:39:08.045Z,0.00
2018-07-20T02:40:08.039Z,0.00
2018-07-20T02:41:07.974Z,0.00
2018-07-20T02:42:08.078Z,0.00
2018-07-20T02:43:08.013Z,0.00
2018-07-20T02:44:08.006Z,0.00
2018-07-20T02:45:08.045Z,0.00
2018-07-20T02:46:08.009Z,0.00
2018-07-20T02:47:07.983Z,0.00
2018-07-20T02:48:08.021Z,0.00
2018-07-20T02:49:07.950Z,0.00
2018-07-20T02:50:07.991Z,0.00
2018-07-20T02:51:07.973Z,0.00
2018-07-20T02:52:08.015Z,0.00
2018-07-20T02:53:08.015Z,0.00
2018-07-20T02:54:08.050Z,0.00
2018-07-20T02:55:08.057Z,0.00
2018-07-20T02:56:08.013Z,0.00
2018-07-20T02:57:07.972Z,0.00
2018-07-20T02:58:07.918Z,0.00
2018-07-20T02:59:16.569Z,0.00
2018-07-20T03:00:07.984Z,0.00
2018-07-20T03:01:07.937Z,0.00
2018-07-20T03:02:07.989Z,0.00
2018-07-20T03:03:07.944Z,0.00
2018-07-20T03:04:07.996Z,0.00
2018-07-20T03:05:07.975Z,0.00
2018-07-20T03:06:08.056Z,0.00
2018-07-20T03:07:08.027Z,0.00
2018-07-20T03:08:07.965Z,0.00
2018-07-20T03:09:08.013Z,0.00
2018-07-20T03:10:07.933Z,0.00
2018-07-20T03:11:07.997Z,0.00
2018-07-20T03:12:07.931Z,0.00
2018-07-20T03:13:08.052Z,0.00
2018-07-20T03:14:07.959Z,0.00
2018-07-20T03:15:08.029Z,0.00
2018-07-20T03:16:07.961Z,0.00
2018-07-20T03:17:08.031Z,0.00
2018-07-20T03:18:07.960Z,0.00
2018-07-20T03:19:08.044Z,0.00
2018-07-20T03:20:08.033Z,0.00
2018-07-20T03:21:08.017Z,0.00
2018-07-20T03:22:07.971Z,0.00
2018-07-20T03:23:08.032Z,0.00
2018-07-20T03:24:08.011Z,0.00
2018-07-20T03:25:07.936Z,0.00
2018-07-20T03:26:08.002Z,0.00
2018-07-20T03:27:07.954Z,0.00
2018-07-20T03:28:08.041Z,0.00
2018-07-20T03:29:08.002Z,0.00
2018-07-20T03:30:08.008Z,0.00
2018-07-20T03:31:08.073Z,0.00
2018-07-20T03:32:07.943Z,0.00
2018-07-20T03:33:08.000Z,0.00
2018-07-20T03:34:08.042Z,0.00
2018-07-20T03:35:07.974Z,0.00
2018-07-20T03:36:08.062Z,0.00
2018-07-20T03:37:07.989Z,0.00
2018-07-20T03:38:08.041Z,0.00
2018-07-20T03:39:08.042Z,0.00
2018-07-20T03:40:08.046Z,0.00
2018-07-20T03:41:07.976Z,1.00
2018-07-20T03:42:08.043Z,1.00
2018-07-20T03:43:07.981Z,1.00
2018-07-20T03:44:08.063Z,1.00
2018-07-20T03:45:08.077Z,1.00
2018-07-20T03:46:08.072Z,1.00
2018-07-20T03:47:08.042Z,1.00
2018-07-20T03:48:07.951Z,1.00
2018-07-20T03:49:08.150Z,1.00
2018-07-20T03:50:08.015Z,1.00
2018-07-20T03:51:08.047Z,1.00
2018-07-20T03:52:08.051Z,1.00
2018-07-20T03:53:08.050Z,1.00
2018-07-20T03:54:07.975Z,1.00
2018-07-20T03:55:08.053Z,2.00
2018-07-20T03:56:07.949Z,2.00
2018-07-20T03:57:08.085Z,2.00
2018-07-20T03:58:08.092Z,2.00
2018-07-20T03:59:08.019Z,2.00
2018-07-20T04:00:08.076Z,2.00
2018-07-20T04:01:08.071Z,2.00
2018-07-20T04:02:08.034Z,2.00
2018-07-20T04:03:08.101Z,2.00
2018-07-20T04:04:08.066Z,2.00
2018-07-20T04:05:08.081Z,3.00
2018-07-20T04:06:08.060Z,3.00
2018-07-20T04:07:08.074Z,3.00
2018-07-20T04:08:07.969Z,3.00
2018-07-20T04:09:08.042Z,3.00
2018-07-20T04:10:08.035Z,3.00
2018-07-20T04:11:08.006Z,3.00
2018-07-20T04:12:08.084Z,3.00
2018-07-20T04:13:07.970Z,3.00
2018-07-20T04:14:08.024Z,3.00
2018-07-20T04:15:08.049Z,4.00
2018-07-20T04:16:08.054Z,4.00
2018-07-20T04:17:08.004Z,4.00
2018-07-20T04:18:07.974Z,4.00
2018-07-20T04:19:07.943Z,4.00
2018-07-20T04:20:08.056Z,4.00
2018-07-20T04:21:08.062Z,4.00
2018-07-20T04:22:08.069Z,5.00
2018-07-20T04:23:07.940Z,5.00
2018-07-20T04:24:08.008Z,5.00
2018-07-20T04:25:08.071Z,5.00
2018-07-20T04:26:08.117Z,5.00
2018-07-20T04:27:08.103Z,5.00
2018-07-20T04:28:08.096Z,5.00
2018-07-20T04:29:08.076Z,6.00
2018-07-20T04:30:08.055Z,6.00
2018-07-20T04:31:07.972Z,6.00
2018-07-20T04:32:08.078Z,6.00
2018-07-20T04:33:08.048Z,6.00
2018-07-20T04:34:08.042Z,6.00
2018-07-20T04:35:08.080Z,6.00
2018-07-20T04:36:08.014Z,6.00
2018-07-20T04:37:08.014Z,6.00
2018-07-20T04:38:08.084Z,6.00
2018-07-20T04:39:08.021Z,7.00
2018-07-20T04:40:08.015Z,7.00
2018-07-20T04:41:08.082Z,7.00
2018-07-20T04:42:08.081Z,7.00
2018-07-20T04:43:08.022Z,7.00
2018-07-20T04:44:08.017Z,7.00
2018-07-20T04:45:08.046Z,7.00
2018-07-20T04:46:08.083Z,7.00
2018-07-20T04:47:08.086Z,7.00
2018-07-20T04:48:08.047Z,7.00
2018-07-20T04:49:08.070Z,7.00
2018-07-20T04:50:08.052Z,7.00
2018-07-20T04:51:08.109Z,7.00
2018-07-20T04:52:08.153Z,7.00
2018-07-20T04:53:07.994Z,8.00
2018-07-20T04:54:08.117Z,8.00
2018-07-20T04:55:07.988Z,8.00
2018-07-20T04:56:08.000Z,8.00
2018-07-20T04:57:07.992Z,8.00
2018-07-20T04:58:08.017Z,8.00
2018-07-20T04:59:07.956Z,9.00
2018-07-20T05:00:08.040Z,9.00
2018-07-20T05:01:08.046Z,9.00
2018-07-20T05:02:07.951Z,9.00
2018-07-20T05:03:08.047Z,10.00
2018-07-20T05:04:08.050Z,10.00
2018-07-20T05:05:08.060Z,10.00
2018-07-20T05:06:08.037Z,10.00
2018-07-20T05:07:08.104Z,11.00
2018-07-20T05:08:08.058Z,11.00
2018-07-20T05:09:08.099Z,11.00
2018-07-20T05:10:08.036Z,11.00
2018-07-20T05:11:08.103Z,12.00
2018-07-20T05:12:08.040Z,12.00
2018-07-20T05:13:08.041Z,12.00
2018-07-20T05:14:08.041Z,12.00
2018-07-20T05:15:08.042Z,12.00
2018-07-20T05:16:08.105Z,12.00
2018-07-20T05:17:08.106Z,12.00
2018-07-20T05:18:08.107Z,12.00
2018-07-20T05:19:08.110Z,12.00
2018-07-20T05:20:08.040Z,12.00
2018-07-20T05:21:08.108Z,13.00
2018-07-20T05:22:08.049Z,13.00
2018-07-20T05:23:08.045Z,13.00
2018-07-20T05:24:08.169Z,13.00
2018-07-20T05:25:08.129Z,13.00
2018-07-20T05:26:08.038Z,13.00
2018-07-20T05:27:08.075Z,13.00
2018-07-20T05:28:08.027Z,13.00
2018-07-20T05:29:08.056Z,14.00
2018-07-20T05:30:08.090Z,14.00
2018-07-20T05:31:08.077Z,14.00
2018-07-20T05:32:08.143Z,14.00
2018-07-20T05:33:08.091Z,15.00
2018-07-20T05:34:08.097Z,15.00
2018-07-20T05:35:08.006Z,15.00
2018-07-20T05:36:08.044Z,15.00
2018-07-20T05:37:08.116Z,15.00
2018-07-20T05:38:08.091Z,16.00
2018-07-20T05:39:08.113Z,16.00
2018-07-20T05:40:07.995Z,16.00
2018-07-20T05:41:08.112Z,16.00
2018-07-20T05:42:08.115Z,16.00
2018-07-20T05:43:07.993Z,16.00
2018-07-20T05:44:08.057Z,16.00
2018-07-20T05:45:08.140Z,17.00
2018-07-20T05:46:08.125Z,17.00
2018-07-20T05:47:08.061Z,17.00
2018-07-20T05:48:08.128Z,19.00
2018-07-20T05:49:08.063Z,28.00
2018-07-20T05:50:08.132Z,39.00
2018-07-20T05:51:08.063Z,42.00
2018-07-20T05:52:08.130Z,42.00
2018-07-20T05:53:08.065Z,41.00
2018-07-20T05:54:08.067Z,42.00
2018-07-20T05:55:08.172Z,38.00
2018-07-20T05:56:08.131Z,41.00
2018-07-20T05:57:08.067Z,41.00
2018-07-20T05:58:08.136Z,42.00
2018-07-20T05:59:08.134Z,46.00
2018-07-20T06:00:08.136Z,46.00
2018-07-20T06:01:08.070Z,43.00
2018-07-20T06:02:08.140Z,45.00
2018-07-20T06:03:08.071Z,45.00
2018-07-20T06:04:08.219Z,47.00
2018-07-20T06:05:08.136Z,48.00
2018-07-20T06:06:08.072Z,49.00
2018-07-20T06:07:08.111Z,50.00
2018-07-20T06:08:08.126Z,52.00
2018-07-20T06:09:08.112Z,51.00
2018-07-20T06:10:08.120Z,50.00
2018-07-20T06:11:08.117Z,50.00
2018-07-20T06:12:08.105Z,49.00
2018-07-20T06:13:08.118Z,47.00
2018-07-20T06:14:08.208Z,47.00
2018-07-20T06:15:08.099Z,42.00
2018-07-20T06:16:08.130Z,28.00
2018-07-20T06:17:08.132Z,31.00
2018-07-20T06:18:08.131Z,31.00
2018-07-20T06:19:08.092Z,34.00
2018-07-20T06:20:08.072Z,42.00
2018-07-20T06:21:08.048Z,35.00
2018-07-20T06:22:08.103Z,41.00
2018-07-20T06:23:08.077Z,29.00
2018-07-20T06:24:08.092Z,32.00
2018-07-20T06:25:08.115Z,30.00
2018-07-20T06:26:08.177Z,46.00
2018-07-20T06:27:08.113Z,51.00
2018-07-20T06:28:08.092Z,55.00
2018-07-20T06:29:08.117Z,56.00
2018-07-20T06:30:08.117Z,43.00
2018-07-20T06:31:08.279Z,41.00
2018-07-20T06:32:08.140Z,28.00
2018-07-20T06:33:08.135Z,28.00
2018-07-20T06:34:08.062Z,27.00
2018-07-20T06:35:08.069Z,27.00
2018-07-20T06:36:08.159Z,40.00
2018-07-20T06:37:08.159Z,39.00
2018-07-20T06:38:08.122Z,31.00
2018-07-20T06:39:08.177Z,43.00
2018-07-20T06:40:08.124Z,39.00
2018-07-20T06:41:08.130Z,29.00
2018-07-20T06:42:08.147Z,31.00
2018-07-20T06:43:08.300Z,38.00
2018-07-20T06:44:08.201Z,29.00
2018-07-20T06:45:08.200Z,30.00
2018-07-20T06:46:08.071Z,33.00
2018-07-20T06:47:08.263Z,28.00
2018-07-20T06:48:08.151Z,29.00
2018-07-20T06:49:08.175Z,32.00
2018-07-20T06:50:08.111Z,30.00
2018-07-20T06:51:08.194Z,28.00
2018-07-20T06:52:08.204Z,32.00
2018-07-20T06:53:08.131Z,41.00
2018-07-20T06:54:08.207Z,32.00
2018-07-20T06:55:08.154Z,31.00
2018-07-20T06:56:08.082Z,47.00
2018-07-20T06:57:08.133Z,52.00
2018-07-20T06:58:08.205Z,58.00
2018-07-20T06:59:08.197Z,46.00
2018-07-20T07:00:08.131Z,36.00
2018-07-20T07:01:08.087Z,41.00
2018-07-20T07:02:08.138Z,38.00
2018-07-20T07:03:08.100Z,33.00
2018-07-20T07:04:08.140Z,29.00
2018-07-20T07:05:08.097Z,29.00
2018-07-20T07:06:08.140Z,30.00
2018-07-20T07:07:08.184Z,29.00
2018-07-20T07:08:08.209Z,29.00
2018-07-20T07:09:08.208Z,29.00
2018-07-20T07:10:08.144Z,40.00
2018-07-20T07:11:08.218Z,30.00
2018-07-20T07:12:08.187Z,36.00
2018-07-20T07:13:08.208Z,38.00
2018-07-20T07:14:08.224Z,30.00
2018-07-20T07:15:08.179Z,31.00
2018-07-20T07:16:08.207Z,31.00
2018-07-20T07:17:08.217Z,32.00
2018-07-20T07:18:08.205Z,36.00
2018-07-20T07:19:08.123Z,33.00
2018-07-20T07:20:08.215Z,59.00
2018-07-20T07:21:08.095Z,52.00
2018-07-20T07:22:08.214Z,34.00
2018-07-20T07:23:08.169Z,46.00
2018-07-20T07:24:08.169Z,41.00
2018-07-20T07:25:08.215Z,34.00
2018-07-20T07:26:08.219Z,33.00
2018-07-20T07:27:08.169Z,45.00
2018-07-20T07:28:08.165Z,59.00
2018-07-20T07:29:08.207Z,59.00
2018-07-20T07:30:08.148Z,42.00
2018-07-20T07:31:08.198Z,41.00
2018-07-20T07:32:08.123Z,55.00
2018-07-20T07:33:08.178Z,48.00
2018-07-20T07:34:08.195Z,46.00
2018-07-20T07:35:08.077Z,50.00
2018-07-20T07:36:08.194Z,53.00
2018-07-20T07:37:08.073Z,53.00
2018-07-20T07:38:08.196Z,55.00
2018-07-20T07:39:08.154Z,56.00
2018-07-20T07:40:08.156Z,57.00
2018-07-20T07:41:08.138Z,53.00
2018-07-20T07:42:08.107Z,47.00
2018-07-20T07:43:08.156Z,42.00
2018-07-20T07:44:08.107Z,43.00
2018-07-20T07:45:08.242Z,50.00
2018-07-20T07:46:08.214Z,54.00
2018-07-20T07:47:08.244Z,55.00
2018-07-20T07:48:08.184Z,59.00
2018-07-20T07:49:08.208Z,58.00
2018-07-20T07:50:08.212Z,57.00
2018-07-20T07:51:08.120Z,54.00
2018-07-20T07:52:08.227Z,58.00
2018-07-20T07:53:08.235Z,57.00
2018-07-20T07:54:08.209Z,59.00
2018-07-20T07:55:08.215Z,59.00
2018-07-20T07:56:08.147Z,55.00
2018-07-20T07:57:08.150Z,52.00
2018-07-20T07:58:08.214Z,63.00
2018-07-20T07:59:08.172Z,66.00
2018-07-20T08:00:08.215Z,67.00
2018-07-20T08:01:08.153Z,66.00
2018-07-20T08:02:08.152Z,65.00
2018-07-20T08:03:08.168Z,69.00
2018-07-20T08:04:08.219Z,69.00
2018-07-20T08:05:08.241Z,70.00
2018-07-20T08:06:08.239Z,73.00
2018-07-20T08:07:08.244Z,73.00
2018-07-20T08:08:08.268Z,72.00
2018-07-20T08:09:08.134Z,71.00
2018-07-20T08:10:08.428Z,72.00
2018-07-20T08:11:08.125Z,72.00
2018-07-20T08:12:08.221Z,73.00
2018-07-20T08:13:08.260Z,72.00
2018-07-20T08:14:08.238Z,73.00
2018-07-20T08:15:08.204Z,72.00
2018-07-20T08:16:08.270Z,73.00
2018-07-20T08:17:08.254Z,73.00
2018-07-20T08:18:08.215Z,74.00
2018-07-20T08:19:08.266Z,75.00
2018-07-20T08:20:08.154Z,74.00
2018-07-20T08:21:08.130Z,74.00
2018-07-20T08:22:08.237Z,74.00
2018-07-20T08:23:08.210Z,73.00
2018-07-20T08:24:08.255Z,73.00
2018-07-20T08:25:08.174Z,73.00
2018-07-20T08:26:08.133Z,72.00
2018-07-20T08:27:08.196Z,74.00
2018-07-20T08:28:08.154Z,72.00
2018-07-20T08:29:08.236Z,71.00
2018-07-20T08:30:08.140Z,71.00
2018-07-20T08:31:08.274Z,68.00
2018-07-20T08:32:08.217Z,67.00
2018-07-20T08:33:08.266Z,64.00
2018-07-20T08:34:08.236Z,59.00
2018-07-20T08:35:08.241Z,55.00
2018-07-20T08:36:08.242Z,52.00
2018-07-20T08:37:08.219Z,46.00
2018-07-20T08:38:08.216Z,47.00
2018-07-20T08:39:08.222Z,48.00
2018-07-20T08:40:08.142Z,55.00
2018-07-20T08:41:08.255Z,56.00
2018-07-20T08:42:08.265Z,53.00
2018-07-20T08:43:08.271Z,53.00
2018-07-20T08:44:08.167Z,52.00
2018-07-20T08:45:08.278Z,51.00
2018-07-20T08:46:08.244Z,48.00
2018-07-20T08:47:08.230Z,49.00
2018-07-20T08:48:08.229Z,50.00
2018-07-20T08:49:08.249Z,52.00
2018-07-20T08:50:08.281Z,54.00
2018-07-20T08:51:08.213Z,58.00
2018-07-20T08:52:08.152Z,60.00
2018-07-20T08:53:08.281Z,61.00
2018-07-20T08:54:08.340Z,62.00
2018-07-20T08:55:08.255Z,70.00
2018-07-20T08:56:08.231Z,71.00
2018-07-20T08:57:08.216Z,69.00
2018-07-20T08:58:08.286Z,64.00
2018-07-20T08:59:08.392Z,62.00
2018-07-20T09:00:08.228Z,64.00
2018-07-20T09:01:08.233Z,62.00
2018-07-20T09:02:08.166Z,62.00
2018-07-20T09:03:08.260Z,62.00
2018-07-20T09:04:08.289Z,61.00
2018-07-20T09:05:08.261Z,53.00
2018-07-20T09:06:08.194Z,47.00
2018-07-20T09:07:08.227Z,50.00
2018-07-20T09:08:08.310Z,66.00
2018-07-20T09:09:08.234Z,62.00
2018-07-20T09:10:08.287Z,58.00
2018-07-20T09:11:08.309Z,55.00
2018-07-20T09:12:08.286Z,50.00
2018-07-20T09:13:08.248Z,56.00
2018-07-20T09:14:08.224Z,53.00
2018-07-20T09:15:08.296Z,63.00
2018-07-20T09:16:08.224Z,68.00
2018-07-20T09:17:08.271Z,71.00
2018-07-20T09:18:08.174Z,72.00
2018-07-20T09:19:08.270Z,65.00
2018-07-20T09:20:08.240Z,53.00
2018-07-20T09:21:08.308Z,52.00
2018-07-20T09:22:08.273Z,59.00
2018-07-20T09:23:08.246Z,61.00
2018-07-20T09:24:08.296Z,58.00
2018-07-20T09:25:08.179Z,67.00
2018-07-20T09:26:08.237Z,57.00
2018-07-20T09:27:08.245Z,53.00
2018-07-20T09:28:08.248Z,59.00
2018-07-20T09:29:08.296Z,56.00
2018-07-20T09:30:08.240Z,59.00
2018-07-20T09:31:08.320Z,58.00
2018-07-20T09:32:08.277Z,53.00
2018-07-20T09:33:08.318Z,47.00
2018-07-20T09:34:08.368Z,43.00
2018-07-20T09:35:08.283Z,41.00
2018-07-20T09:36:08.326Z,39.00
2018-07-20T09:37:08.313Z,38.00
2018-07-20T09:38:08.306Z,38.00
2018-07-20T09:39:08.288Z,38.00
2018-07-20T09:40:08.292Z,43.00
2018-07-20T09:41:08.322Z,45.00
2018-07-20T09:42:08.244Z,44.00
2018-07-20T09:43:08.312Z,59.00
2018-07-20T09:44:08.286Z,56.00
2018-07-20T09:45:08.290Z,57.00
2018-07-20T09:46:08.196Z,56.00
2018-07-20T09:47:08.221Z,57.00
2018-07-20T09:48:08.275Z,57.00
2018-07-20T09:49:08.295Z,59.00
2018-07-20T09:50:08.159Z,59.00
2018-07-20T09:51:08.244Z,61.00
2018-07-20T09:52:08.248Z,62.00
2018-07-20T09:53:08.250Z,61.00
2018-07-20T09:54:08.283Z,59.00
2018-07-20T09:55:08.234Z,55.00
2018-07-20T09:56:08.286Z,56.00
2018-07-20T09:57:08.220Z,53.00
2018-07-20T09:58:08.218Z,60.00
2018-07-20T09:59:08.248Z,60.00
2018-07-20T10:00:08.291Z,64.00
2018-07-20T10:01:08.205Z,62.00
2018-07-20T10:02:08.285Z,63.00
2018-07-20T10:03:08.169Z,64.00
2018-07-20T10:04:08.255Z,64.00
2018-07-20T10:05:08.292Z,65.00
2018-07-20T10:06:08.305Z,63.00
2018-07-20T10:07:08.240Z,63.00
2018-07-20T10:08:08.371Z,64.00
2018-07-20T10:09:08.315Z,62.00
2018-07-20T10:10:08.242Z,62.00
2018-07-20T10:11:08.307Z,62.00
2018-07-20T10:12:08.345Z,63.00
2018-07-20T10:13:08.244Z,63.00
2018-07-20T10:14:08.244Z,62.00
2018-07-20T10:15:08.403Z,63.00
2018-07-20T10:16:08.313Z,62.00
2018-07-20T10:17:08.242Z,64.00
2018-07-20T10:18:08.302Z,62.00
2018-07-20T10:19:08.351Z,59.00
2018-07-20T10:20:08.305Z,60.00
2018-07-20T10:21:08.247Z,59.00
2018-07-20T10:22:08.302Z,56.00
2018-07-20T10:23:08.261Z,58.00
2018-07-20T10:24:08.252Z,55.00
2018-07-20T10:25:08.234Z,57.00
2018-07-20T10:26:08.251Z,55.00
2018-07-20T10:28:08.254Z,54.00
2018-07-20T10:29:08.257Z,50.00
2018-07-20T10:30:08.317Z,51.00
2018-07-20T10:31:08.253Z,45.00
2018-07-20T10:32:08.321Z,51.00
2018-07-20T10:33:08.255Z,53.00
2018-07-20T10:34:08.254Z,52.00
2018-07-20T10:35:08.289Z,50.00
2018-07-20T10:36:08.344Z,49.00
2018-07-20T10:37:08.325Z,45.00
2018-07-20T10:38:08.353Z,44.00
2018-07-20T10:39:08.227Z,44.00
2018-07-20T10:40:08.230Z,43.00
2018-07-20T10:41:08.296Z,40.00
2018-07-20T10:42:08.349Z,37.00
2018-07-20T10:43:08.423Z,36.00
2018-07-20T10:44:08.325Z,35.00
2018-07-20T10:45:08.296Z,37.00
2018-07-20T10:46:08.268Z,39.00
2018-07-20T10:47:08.333Z,44.00
2018-07-20T10:48:08.337Z,44.00
2018-07-20T10:49:08.332Z,49.00
2018-07-20T10:50:08.460Z,51.00
2018-07-20T10:51:08.336Z,55.00
2018-07-20T10:52:08.436Z,56.00
2018-07-20T10:53:08.296Z,55.00
2018-07-20T10:54:08.303Z,55.00
2018-07-20T10:55:08.353Z,55.00
2018-07-20T10:56:08.303Z,54.00
2018-07-20T10:57:08.302Z,54.00
2018-07-20T10:58:08.367Z,53.00
2018-07-20T10:59:08.359Z,54.00
2018-07-20T11:00:08.304Z,53.00
2018-07-20T11:01:08.246Z,54.00
2018-07-20T11:02:08.314Z,52.00
2018-07-20T11:03:08.371Z,52.00
2018-07-20T11:04:08.378Z,52.00
2018-07-20T11:05:08.345Z,52.00
2018-07-20T11:06:08.277Z,51.00
2018-07-20T11:07:08.346Z,50.00
2018-07-20T11:08:08.346Z,51.00
2018-07-20T11:09:08.344Z,48.00
2018-07-20T11:10:08.281Z,47.00
2018-07-20T11:11:08.345Z,49.00
2018-07-20T11:12:08.283Z,49.00
2018-07-20T11:13:08.284Z,37.00
2018-07-20T11:14:08.282Z,34.00
2018-07-20T11:15:08.352Z,36.00
2018-07-20T11:16:08.349Z,38.00
2018-07-20T11:17:08.308Z,39.00
2018-07-20T11:18:08.305Z,41.00
2018-07-20T11:19:08.373Z,46.00
2018-07-20T11:20:08.391Z,47.00
2018-07-20T11:21:08.376Z,48.00
2018-07-20T11:22:08.322Z,49.00
2018-07-20T11:23:08.382Z,49.00
2018-07-20T11:24:08.370Z,49.00
2018-07-20T11:25:08.389Z,51.00
2018-07-20T11:26:08.349Z,51.00
2018-07-20T11:27:08.226Z,51.00
2018-07-20T11:28:08.326Z,48.00
2018-07-20T11:29:08.353Z,45.00
2018-07-20T11:30:08.342Z,44.00
2018-07-20T11:31:08.354Z,44.00
2018-07-20T11:32:08.263Z,45.00
2018-07-20T11:33:08.281Z,45.00
2018-07-20T11:34:08.350Z,44.00
2018-07-20T11:35:08.297Z,44.00
2018-07-20T11:36:08.280Z,45.00
2018-07-20T11:37:08.331Z,45.00
2018-07-20T11:38:08.402Z,46.00
2018-07-20T11:39:08.334Z,44.00
2018-07-20T11:40:08.384Z,27.00
2018-07-20T11:41:08.406Z,27.00
2018-07-20T11:42:08.343Z,27.00
2018-07-20T11:43:08.269Z,27.00
2018-07-20T11:44:08.365Z,27.00
2018-07-20T11:45:08.279Z,37.00
2018-07-20T11:46:08.351Z,26.00
2018-07-20T11:47:08.391Z,26.00
2018-07-20T11:48:08.394Z,28.00
2018-07-20T11:49:08.403Z,39.00
2018-07-20T11:50:08.401Z,40.00
2018-07-20T11:51:08.405Z,43.00
2018-07-20T11:52:08.281Z,27.00
2018-07-20T11:53:08.334Z,27.00
2018-07-20T11:54:08.348Z,27.00
2018-07-20T11:55:08.379Z,26.00
2018-07-20T11:56:08.439Z,26.00
2018-07-20T11:57:08.282Z,26.00
2018-07-20T11:58:08.407Z,40.00
2018-07-20T11:59:08.279Z,33.00
2018-07-20T12:00:08.411Z,27.00
2018-07-20T12:01:08.424Z,25.00
2018-07-20T12:02:08.401Z,25.00
2018-07-20T12:03:08.395Z,24.00
2018-07-20T12:04:08.341Z,24.00
2018-07-20T12:05:08.418Z,25.00
2018-07-20T12:06:08.366Z,32.00
2018-07-20T12:07:08.365Z,30.00
2018-07-20T12:08:08.246Z,40.00
2018-07-20T12:09:08.309Z,42.00
2018-07-20T12:10:08.310Z,40.00
2018-07-20T12:11:08.277Z,42.00
2018-07-20T12:12:08.280Z,38.00
2018-07-20T12:13:08.280Z,39.00
2018-07-20T12:14:08.372Z,38.00
2018-07-20T12:15:08.337Z,27.00
2018-07-20T12:16:08.363Z,34.00
2018-07-20T12:17:08.369Z,26.00
2018-07-20T12:18:08.407Z,30.00
2018-07-20T12:19:08.314Z,28.00
2018-07-20T12:20:08.299Z,27.00
2018-07-20T12:21:08.412Z,25.00
2018-07-20T12:22:08.364Z,35.00
2018-07-20T12:23:08.304Z,33.00
2018-07-20T12:24:08.398Z,27.00
2018-07-20T12:25:08.423Z,24.00
2018-07-20T12:26:08.398Z,24.00
2018-07-20T12:27:08.335Z,24.00
2018-07-20T12:28:08.436Z,33.00
2018-07-20T12:29:08.333Z,32.00
2018-07-20T12:30:08.435Z,26.00
2018-07-20T12:31:08.333Z,24.00
2018-07-20T12:32:08.423Z,37.00
2018-07-20T12:33:08.402Z,39.00
2018-07-20T12:34:08.394Z,25.00
2018-07-20T12:35:08.412Z,24.00
2018-07-20T12:36:08.339Z,23.00
2018-07-20T12:37:08.404Z,42.00
2018-07-20T12:38:08.338Z,36.00
2018-07-20T12:39:08.406Z,37.00
2018-07-20T12:40:08.341Z,38.00
2018-07-20T12:41:08.427Z,29.00
2018-07-20T12:42:08.343Z,38.00
2018-07-20T12:43:08.412Z,40.00
2018-07-20T12:44:08.410Z,31.00
2018-07-20T12:45:08.346Z,40.00
2018-07-20T12:46:08.393Z,33.00
2018-07-20T12:47:08.370Z,23.00
2018-07-20T12:48:08.309Z,23.00
2018-07-20T12:49:08.451Z,23.00
2018-07-20T12:50:08.454Z,23.00
2018-07-20T12:51:08.441Z,22.00
2018-07-20T12:52:08.444Z,22.00
2018-07-20T12:53:08.435Z,22.00
2018-07-20T12:54:08.435Z,22.00
2018-07-20T12:55:08.386Z,22.00
2018-07-20T12:56:08.417Z,23.00
2018-07-20T12:57:08.327Z,25.00
2018-07-20T12:58:08.398Z,35.00
2018-07-20T12:59:08.421Z,37.00
2018-07-20T13:00:08.439Z,39.00
2018-07-20T13:01:08.400Z,36.00
2018-07-20T13:02:08.442Z,35.00
2018-07-20T13:03:08.378Z,34.00